createdAt,value
2022-08-11T00:01:07.790Z,101873.44
2022-08-11T00:03:43.012Z,101879.88
2022-08-11T00:06:14.087Z,101871.94
2022-08-11T00:08:43.274Z,101876.56
2022-08-11T00:11:12.594Z,101875.75
2022-08-11T00:13:46.390Z,101873.13
2022-08-11T00:16:23.849Z,101875.97
2022-08-11T00:18:55.013Z,101883.38
2022-08-11T00:22:01.922Z,101884.38
2022-08-11T00:24:11.346Z,101875.53
2022-08-11T00:26:38.259Z,101882.91
2022-08-11T00:29:12.277Z,101881.16
2022-08-11T00:31:46.840Z,101883.16
2022-08-11T00:34:15.245Z,101884.16
2022-08-11T00:37:00.196Z,101887.00
2022-08-11T00:39:29.335Z,101888.94
2022-08-11T00:42:43.128Z,101884.63
2022-08-11T00:45:24.763Z,101880.19
2022-08-11T00:48:28.620Z,101874.13
2022-08-11T00:51:57.707Z,101884.19
2022-08-11T00:54:52.465Z,101886.13
2022-08-11T00:57:53.036Z,101879.94
2022-08-11T01:00:25.430Z,101876.41
2022-08-11T01:03:18.810Z,101881.94
2022-08-11T01:06:32.942Z,101883.91
2022-08-11T01:09:48.412Z,101880.47
2022-08-11T01:12:43.040Z,101878.81
2022-08-11T01:15:59.491Z,101893.44
2022-08-11T01:19:19.084Z,101889.09
2022-08-11T01:22:44.233Z,101884.84
2022-08-11T01:26:15.864Z,101886.81
2022-08-11T01:29:33.902Z,101885.16
2022-08-11T01:32:40.991Z,101879.94
2022-08-11T01:36:05.755Z,101887.28
2022-08-11T01:39:18.319Z,101882.94
2022-08-11T01:43:01.169Z,101877.66
2022-08-11T01:46:00.694Z,101876.84
2022-08-11T01:48:43.867Z,101886.78
2022-08-11T01:51:41.975Z,101886.88
2022-08-11T01:55:07.540Z,101881.69
2022-08-11T01:58:00.985Z,101889.84
2022-08-11T02:00:30.559Z,101892.59
2022-08-11T02:03:17.063Z,101895.38
2022-08-11T02:06:01.397Z,101884.63
2022-08-11T02:08:58.545Z,101884.78
2022-08-11T02:11:37.546Z,101878.47
2022-08-11T02:14:34.659Z,101875.88
2022-08-11T02:17:46.233Z,101885.94
2022-08-11T02:20:49.092Z,101877.88
2022-08-11T02:24:06.804Z,101879.78
2022-08-11T02:26:48.621Z,101887.09
2022-08-11T02:29:47.483Z,101881.84
2022-08-11T02:32:51.736Z,101888.19
2022-08-11T02:35:36.542Z,101884.72
2022-08-11T02:38:19.788Z,101882.44
2022-08-11T02:41:31.052Z,101872.53
2022-08-11T02:44:49.113Z,101882.53
2022-08-11T02:48:18.140Z,101884.41
2022-08-11T02:51:37.408Z,101881.84
2022-08-11T02:54:25.179Z,101877.34
2022-08-11T02:57:05.115Z,101880.97
2022-08-11T03:00:07.378Z,101882.78
2022-08-11T03:03:10.903Z,101877.53
2022-08-11T03:06:04.982Z,101875.81
2022-08-11T03:09:14.297Z,101875.94
2022-08-11T03:12:22.922Z,101879.56
2022-08-11T03:15:44.724Z,101878.88
2022-08-11T03:18:26.835Z,101879.81
2022-08-11T03:21:22.082Z,101883.50
2022-08-11T03:23:58.640Z,101879.06
2022-08-11T03:26:43.342Z,101878.25
2022-08-11T03:29:25.189Z,101874.03
2022-08-11T03:32:26.800Z,101882.13
2022-08-11T03:34:57.692Z,101890.09
2022-08-11T03:37:51.599Z,101880.28
2022-08-11T03:42:01.347Z,101871.44
2022-08-11T03:44:25.328Z,101884.13
2022-08-11T03:47:37.295Z,101879.75
2022-08-11T03:50:30.155Z,101882.50
2022-08-11T03:53:54.878Z,101867.34
2022-08-11T03:57:04.112Z,101876.41
2022-08-11T04:00:14.552Z,101886.41
2022-08-11T04:03:07.792Z,101887.31
2022-08-11T04:06:20.848Z,101882.94
2022-08-11T04:09:37.797Z,101882.16
2022-08-11T04:13:02.859Z,101878.63
2022-08-11T04:16:00.667Z,101879.56
2022-08-11T04:19:21.289Z,101884.16
2022-08-11T04:22:22.321Z,101882.38
2022-08-11T04:25:29.402Z,101875.19
2022-08-11T04:28:28.937Z,101876.91
2022-08-11T04:31:52.041Z,101877.88
2022-08-11T04:34:46.160Z,101880.53
2022-08-11T04:37:50.761Z,101876.03
2022-08-11T04:40:56.705Z,101877.88
2022-08-11T04:44:11.184Z,101882.28
2022-08-11T04:46:59.618Z,101883.16
2022-08-11T04:50:20.449Z,101884.94
2022-08-11T04:53:22.083Z,101886.63
2022-08-11T04:56:37.096Z,101884.75
2022-08-11T04:59:59.542Z,101885.38
2022-08-11T05:03:16.589Z,101879.16
2022-08-11T05:06:19.036Z,101875.22
2022-08-11T05:09:14.577Z,101874.53
2022-08-11T05:12:13.582Z,101867.13
2022-08-11T05:15:11.021Z,101868.88
2022-08-11T05:18:14.428Z,101868.72
2022-08-11T05:21:13.053Z,101861.22
2022-08-11T05:24:07.062Z,101861.88
2022-08-11T05:27:08.756Z,101859.72
2022-08-11T05:30:21.095Z,101868.22
2022-08-11T05:33:26.693Z,101867.88
2022-08-11T05:36:17.555Z,101869.75
2022-08-11T05:39:16.581Z,101864.22
2022-08-11T05:42:02.518Z,101867.34
2022-08-11T05:44:49.577Z,101865.06
2022-08-11T05:47:45.964Z,101868.16
2022-08-11T05:50:34.781Z,101871.53
2022-08-11T05:53:24.378Z,101867.22
2022-08-11T05:56:11.581Z,101875.72
2022-08-11T05:58:53.597Z,101870.00
2022-08-11T06:04:26.200Z,101870.25
2022-08-11T06:07:00.848Z,101879.31
2022-08-11T06:09:50.535Z,101881.53
2022-08-11T06:12:32.508Z,101871.28
2022-08-11T06:15:11.381Z,101872.63
2022-08-11T06:17:46.998Z,101873.53
2022-08-11T06:20:16.634Z,101877.16
2022-08-11T06:22:52.382Z,101869.59
2022-08-11T06:25:20.157Z,101863.81
2022-08-11T06:27:56.194Z,101860.38
2022-08-11T06:30:46.556Z,101867.13
2022-08-11T06:33:48.161Z,101862.84
2022-08-11T06:36:41.538Z,101871.16
2022-08-11T06:39:23.099Z,101864.00
2022-08-11T06:42:04.563Z,101862.59
2022-08-11T06:44:40.850Z,101857.38
2022-08-11T06:47:13.195Z,101859.81
2022-08-11T06:50:04.487Z,101867.56
2022-08-11T06:52:37.516Z,101869.50
2022-08-11T06:55:57.282Z,101863.50
2022-08-11T06:58:22.686Z,101865.66
2022-08-11T07:00:56.398Z,101868.97
2022-08-11T07:03:25.651Z,101865.59
2022-08-11T07:06:05.416Z,101867.50
2022-08-11T07:09:32.187Z,101870.34
2022-08-11T07:12:52.768Z,101874.94
2022-08-11T07:16:11.422Z,101867.72
2022-08-11T07:18:48.626Z,101873.22
2022-08-11T07:22:02.782Z,101873.28
2022-08-11T07:25:01.667Z,101867.38
2022-08-11T07:28:01.634Z,101869.84
2022-08-11T07:30:29.338Z,101869.59
2022-08-11T07:32:59.969Z,101873.88
2022-08-11T07:35:42.951Z,101865.75
2022-08-11T07:38:43.153Z,101876.19
2022-08-11T07:41:12.760Z,101871.72
2022-08-11T07:43:41.572Z,101873.59
2022-08-11T07:46:28.886Z,101866.78
2022-08-11T07:49:14.632Z,101864.13
2022-08-11T07:52:02.230Z,101872.38
2022-08-11T07:54:33.336Z,101873.25
2022-08-11T07:57:09.016Z,101876.63
2022-08-11T08:00:03.872Z,101867.50
2022-08-11T08:02:50.241Z,101866.69
2022-08-11T08:05:37.649Z,101870.63
2022-08-11T08:08:25.311Z,101863.16
2022-08-11T08:11:13.239Z,101874.09
2022-08-11T08:14:00.423Z,101871.63
2022-08-11T08:16:48.779Z,101872.38
2022-08-11T08:19:19.379Z,101870.09
2022-08-11T08:21:47.783Z,101875.25
2022-08-11T08:24:15.348Z,101880.94
2022-08-11T08:26:59.026Z,101879.13
2022-08-11T08:29:48.330Z,101865.75
2022-08-11T08:32:17.837Z,101865.13
2022-08-11T08:34:46.229Z,101872.28
2022-08-11T08:37:45.301Z,101864.31
2022-08-11T08:40:02.973Z,101865.84
2022-08-11T08:42:33.074Z,101861.63
2022-08-11T08:45:09.718Z,101876.22
2022-08-11T08:48:10.638Z,101863.63
2022-08-11T08:51:08.044Z,101865.09
2022-08-11T08:53:39.598Z,101867.53
2022-08-11T08:56:28.092Z,101866.28
2022-08-11T08:58:57.873Z,101856.63
2022-08-11T09:01:26.142Z,101856.47
2022-08-11T09:04:04.848Z,101857.41
2022-08-11T09:06:40.038Z,101853.97
2022-08-11T09:09:08.894Z,101854.69
2022-08-11T09:11:50.090Z,101852.59
2022-08-11T09:14:18.346Z,101849.50
2022-08-11T09:16:46.981Z,101844.47
2022-08-11T09:19:17.681Z,101842.66
2022-08-11T09:22:11.652Z,101841.72
2022-08-11T09:24:58.557Z,101842.66
2022-08-11T09:27:26.520Z,101844.59
2022-08-11T09:29:54.609Z,101840.00
2022-08-11T09:32:22.802Z,101833.88
2022-08-11T09:34:52.194Z,101835.81
2022-08-11T09:37:54.607Z,101837.59
2022-08-11T09:40:31.035Z,101832.13
2022-08-11T09:43:24.872Z,101826.44
2022-08-11T09:45:53.485Z,101833.41
2022-08-11T09:48:25.925Z,101825.66
2022-08-11T09:50:56.717Z,101827.00
2022-08-11T09:53:35.711Z,101805.00
2022-08-11T09:56:41.202Z,101819.13
2022-08-11T09:59:09.271Z,101817.19
2022-08-11T10:01:47.289Z,101811.50
2022-08-11T10:04:23.213Z,101815.00
2022-08-11T10:07:04.431Z,101808.34
2022-08-11T10:09:50.748Z,101801.69
2022-08-11T10:12:25.611Z,101803.44
2022-08-11T10:15:17.538Z,101795.97
2022-08-11T10:18:15.489Z,101799.03
2022-08-11T10:20:45.543Z,101799.91
2022-08-11T10:23:32.249Z,101783.50
2022-08-11T10:26:17.406Z,101782.63
2022-08-11T10:29:11.680Z,101778.13
2022-08-11T10:31:57.554Z,101776.06
2022-08-11T10:34:29.122Z,101766.00
2022-08-11T10:36:57.220Z,101766.75
2022-08-11T10:39:26.822Z,101764.91
2022-08-11T10:42:25.600Z,101757.47
2022-08-11T10:45:02.050Z,101759.22
2022-08-11T10:47:35.178Z,101754.41
2022-08-11T10:50:32.274Z,101762.41
2022-08-11T10:53:18.972Z,101755.84
2022-08-11T10:56:05.949Z,101751.16
2022-08-11T10:58:48.116Z,101747.44
2022-08-11T11:01:22.561Z,101752.69
2022-08-11T11:03:55.237Z,101738.69
2022-08-11T11:06:45.680Z,101741.09
2022-08-11T11:09:32.238Z,101744.56
2022-08-11T11:12:30.654Z,101740.88
2022-08-11T11:15:17.789Z,101725.41
2022-08-11T11:18:04.646Z,101742.38
2022-08-11T11:20:49.086Z,101742.19
2022-08-11T11:37:25.620Z,101728.41
2022-08-11T11:39:55.316Z,101719.22
2022-08-11T11:42:22.871Z,101723.72
2022-08-11T11:44:54.129Z,101727.19
2022-08-11T11:47:23.082Z,101713.38
2022-08-11T11:49:50.354Z,101716.03
2022-08-11T11:52:20.444Z,101710.31
2022-08-11T11:54:51.444Z,101713.03
2022-08-11T11:57:39.642Z,101710.31
2022-08-11T12:00:33.144Z,101699.34
2022-08-11T12:03:07.352Z,101711.94
2022-08-11T12:05:35.874Z,101703.34
2022-08-11T12:08:13.480Z,101696.78
2022-08-11T12:11:22.092Z,101694.69
2022-08-11T12:13:52.525Z,101698.19
2022-08-11T12:16:34.807Z,101692.50
2022-08-11T12:19:07.875Z,101698.88
2022-08-11T12:21:37.076Z,101687.53
2022-08-11T12:24:29.198Z,101691.34
2022-08-11T12:27:17.645Z,101677.03
2022-08-11T12:29:54.563Z,101672.69
2022-08-11T12:32:26.260Z,101676.94
2022-08-11T12:34:53.811Z,101669.22
2022-08-11T12:37:29.983Z,101670.63
2022-08-11T12:40:42.728Z,101667.41
2022-08-11T12:43:37.827Z,101659.81
2022-08-11T12:46:19.357Z,101653.97
2022-08-11T12:49:07.952Z,101651.72
2022-08-11T12:52:13.274Z,101652.13
2022-08-11T12:54:58.873Z,101642.41
2022-08-11T12:58:06.169Z,101641.91
2022-08-11T13:00:51.985Z,101628.91
2022-08-11T13:03:39.302Z,101635.16
2022-08-11T13:06:07.692Z,101633.81
2022-08-11T13:08:38.285Z,101625.09
2022-08-11T13:11:24.861Z,101621.97
2022-08-11T13:14:15.216Z,101622.47
2022-08-11T13:17:03.219Z,101616.22
2022-08-11T13:19:31.269Z,101613.09
2022-08-11T13:21:58.671Z,101609.09
2022-08-11T13:24:25.739Z,101611.34
2022-08-11T13:26:52.871Z,101613.44
2022-08-11T13:29:23.527Z,101613.56
2022-08-11T13:31:56.143Z,101610.16
2022-08-11T13:34:26.705Z,101615.16
2022-08-11T13:37:00.225Z,101605.66
2022-08-11T13:39:32.329Z,101605.66
2022-08-11T13:42:01.665Z,101610.16
2022-08-11T13:44:31.875Z,101606.53
2022-08-11T13:47:04.014Z,101603.66
2022-08-11T13:49:35.767Z,101602.50
2022-08-11T13:52:04.611Z,101597.50
2022-08-11T13:54:35.305Z,101593.34
2022-08-11T13:57:09.415Z,101600.06
2022-08-11T13:59:51.410Z,101595.44
2022-08-11T14:02:30.266Z,101587.19
2022-08-11T14:05:23.188Z,101588.78
2022-08-11T14:07:53.974Z,101587.44
2022-08-11T14:10:24.883Z,101586.91
2022-08-11T14:13:19.218Z,101579.13
2022-08-11T14:15:48.548Z,101580.00
2022-08-11T14:18:29.448Z,101575.34
2022-08-11T14:21:19.132Z,101577.09
2022-08-11T14:23:55.295Z,101581.72
2022-08-11T14:26:29.023Z,101574.22
2022-08-11T14:29:08.116Z,101569.44
2022-08-11T14:31:39.521Z,101564.97
2022-08-11T14:34:12.525Z,101565.69
2022-08-11T14:36:44.480Z,101566.47
2022-08-11T14:39:17.035Z,101566.16
2022-08-11T14:42:11.286Z,101553.19
2022-08-11T14:45:08.061Z,101556.66
2022-08-11T14:47:38.390Z,101556.94
2022-08-11T14:50:11.422Z,101551.69
2022-08-11T14:52:50.070Z,101555.44
2022-08-11T14:55:37.436Z,101551.94
2022-08-11T14:58:05.424Z,101545.56
2022-08-11T15:00:34.767Z,101548.47
2022-08-11T15:03:11.731Z,101551.22
2022-08-11T15:05:57.363Z,101544.09
2022-08-11T15:08:50.661Z,101544.50
2022-08-11T15:11:39.471Z,101540.28
2022-08-11T15:14:10.181Z,101546.34
2022-08-11T15:17:00.420Z,101535.34
2022-08-11T15:19:40.212Z,101532.72
2022-08-11T15:22:28.451Z,101533.59
2022-08-11T15:24:58.421Z,101525.47
2022-08-11T15:27:44.624Z,101520.06
2022-08-11T15:30:33.057Z,101524.09
2022-08-11T15:33:28.044Z,101520.84
2022-08-11T15:36:15.712Z,101516.91
2022-08-11T15:38:58.211Z,101510.81
2022-08-11T15:42:17.689Z,101505.84
2022-08-11T15:45:11.873Z,101507.97
2022-08-11T15:47:45.966Z,101508.97
2022-08-11T15:50:19.883Z,101504.47
2022-08-11T15:52:53.025Z,101509.13
2022-08-11T15:55:21.592Z,101502.00
2022-08-11T15:58:09.500Z,101504.75
2022-08-11T16:00:59.082Z,101513.28
2022-08-11T16:04:08.042Z,101503.56
2022-08-11T16:06:57.989Z,101502.53
2022-08-11T16:09:37.578Z,101491.53
2022-08-11T16:12:20.023Z,101488.66
2022-08-11T16:15:10.498Z,101492.28
2022-08-11T16:17:50.911Z,101495.31
2022-08-11T16:20:21.925Z,101488.06
2022-08-11T16:22:55.184Z,101479.94
2022-08-11T16:27:01.615Z,101479.06
2022-08-11T16:28:17.908Z,101483.94
2022-08-11T16:30:46.373Z,101483.94
2022-08-11T16:33:48.662Z,101481.34
2022-08-11T16:36:23.606Z,101475.19
2022-08-11T16:38:51.467Z,101474.59
2022-08-11T16:41:41.215Z,101473.59
2022-08-11T16:44:37.219Z,101471.13
2022-08-11T16:47:08.480Z,101476.16
2022-08-11T16:49:38.810Z,101480.88
2022-08-11T16:52:12.085Z,101480.00
2022-08-11T16:54:41.717Z,101477.41
2022-08-11T16:57:42.807Z,101471.16
2022-08-11T17:00:13.029Z,101463.31
2022-08-11T17:03:25.848Z,101467.22
2022-08-11T17:06:12.387Z,101474.69
2022-08-11T17:09:28.302Z,101465.72
2022-08-11T17:12:16.490Z,101462.50
2022-08-11T17:14:54.143Z,101460.75
2022-08-11T17:17:33.355Z,101464.75
2022-08-11T17:20:41.623Z,101466.72
2022-08-11T17:23:15.992Z,101456.03
2022-08-11T17:25:59.322Z,101458.13
2022-08-11T17:28:32.031Z,101460.25
2022-08-11T17:31:22.689Z,101458.50
2022-08-11T17:34:10.088Z,101458.03
2022-08-11T17:36:40.435Z,101461.88
2022-08-11T17:39:13.305Z,101461.25
2022-08-11T17:42:00.718Z,101457.78
2022-08-11T17:44:46.573Z,101454.44
2022-08-11T17:47:33.352Z,101449.34
2022-08-11T17:50:16.511Z,101450.56
2022-08-11T17:53:05.845Z,101449.06
2022-08-11T17:55:57.594Z,101451.31
2022-08-11T17:58:48.770Z,101463.53
2022-08-11T18:01:16.885Z,101455.66
2022-08-11T18:03:53.071Z,101459.53
2022-08-11T18:06:33.579Z,101457.16
2022-08-11T18:09:23.060Z,101466.53
2022-08-11T18:12:12.825Z,101465.25
2022-08-11T18:15:05.111Z,101462.03
2022-08-11T18:17:51.688Z,101466.25
2022-08-11T18:20:37.532Z,101465.75
2022-08-11T18:23:46.924Z,101471.00
2022-08-11T18:26:38.350Z,101470.59
2022-08-11T18:29:26.311Z,101477.41
2022-08-11T18:32:21.184Z,101476.16
2022-08-11T18:35:11.129Z,101470.28
2022-08-11T18:38:06.145Z,101482.72
2022-08-11T18:40:52.083Z,101491.25
2022-08-11T18:43:43.344Z,101476.78
2022-08-11T18:46:32.086Z,101485.38
2022-08-11T18:49:24.627Z,101488.66
2022-08-11T18:52:14.575Z,101477.44
2022-08-11T18:55:03.264Z,101484.34
2022-08-11T18:57:53.763Z,101493.16
2022-08-11T19:00:41.949Z,101491.00
2022-08-11T19:03:30.574Z,101490.59
2022-08-11T19:06:39.134Z,101490.28
2022-08-11T19:09:31.427Z,101487.34
2022-08-11T19:12:19.384Z,101496.13
2022-08-11T19:15:11.339Z,101490.22
2022-08-11T19:18:02.710Z,101499.88
2022-08-11T19:20:51.452Z,101498.69
2022-08-11T19:23:46.994Z,101502.97
2022-08-11T19:26:34.323Z,101501.66
2022-08-11T19:30:05.133Z,101503.81
2022-08-11T19:32:44.101Z,101500.00
2022-08-11T19:35:31.246Z,101500.34
2022-08-11T19:38:17.812Z,101507.97
2022-08-11T19:41:04.531Z,101514.75
2022-08-11T19:43:51.941Z,101516.84
2022-08-11T19:46:39.770Z,101513.44
2022-08-11T19:49:27.584Z,101518.34
2022-08-11T19:52:14.930Z,101516.91
2022-08-11T19:55:03.556Z,101515.38
2022-08-11T19:57:50.789Z,101518.41
2022-08-11T20:00:38.336Z,101521.56
2022-08-11T20:03:29.041Z,101522.75
2022-08-11T20:06:19.592Z,101524.91
2022-08-11T20:09:07.953Z,101524.56
2022-08-11T20:11:59.989Z,101525.78
2022-08-11T20:14:49.548Z,101522.47
2022-08-11T20:17:36.498Z,101532.75
2022-08-11T20:20:26.807Z,101526.81
2022-08-11T20:23:14.577Z,101524.41
2022-08-11T20:26:08.683Z,101527.47
2022-08-11T20:29:09.467Z,101527.81
2022-08-11T20:31:56.262Z,101530.75
2022-08-11T20:34:42.532Z,101530.19
2022-08-11T20:37:29.336Z,101535.84
2022-08-11T20:40:16.172Z,101523.38
2022-08-11T20:43:09.404Z,101528.25
2022-08-11T20:46:15.609Z,101528.47
2022-08-11T20:49:02.423Z,101531.59
2022-08-11T20:51:48.470Z,101530.03
2022-08-11T20:58:04.799Z,101535.25
2022-08-11T21:00:52.743Z,101536.50
2022-08-11T21:06:47.631Z,101544.38
2022-08-11T21:10:01.148Z,101542.91
2022-08-11T21:12:41.673Z,101544.16
2022-08-11T21:15:39.107Z,101552.63
2022-08-11T21:18:35.292Z,101554.81
2022-08-11T21:21:25.193Z,101554.31
2022-08-11T21:24:13.156Z,101568.22
2022-08-11T21:27:06.529Z,101565.09
2022-08-11T21:29:54.802Z,101555.38
2022-08-11T21:32:41.802Z,101559.34
2022-08-11T21:35:29.031Z,101556.88
2022-08-11T21:38:15.875Z,101555.50
2022-08-11T21:41:01.181Z,101564.13
2022-08-11T21:43:50.032Z,101565.41
2022-08-11T21:46:39.325Z,101568.41
2022-08-11T21:49:27.621Z,101572.38
2022-08-11T21:52:12.995Z,101570.97
2022-08-11T21:54:59.552Z,101567.66
2022-08-11T21:57:48.178Z,101560.72
2022-08-11T22:00:37.747Z,101558.28
2022-08-11T22:03:24.050Z,101559.41
2022-08-11T22:06:11.198Z,101564.16
2022-08-11T22:08:56.458Z,101569.88
2022-08-11T22:11:42.365Z,101575.47
2022-08-11T22:14:27.561Z,101572.13
2022-08-11T22:17:12.922Z,101566.09
2022-08-11T22:20:00.714Z,101563.56
2022-08-11T22:22:52.170Z,101562.94
2022-08-11T22:25:50.772Z,101561.34
2022-08-11T22:28:37.585Z,101563.47
2022-08-11T22:31:24.427Z,101565.56
2022-08-11T22:34:09.702Z,101554.09
2022-08-11T22:36:55.482Z,101559.69
2022-08-11T22:39:42.263Z,101562.75
2022-08-11T22:42:33.567Z,101562.91
2022-08-11T22:45:20.424Z,101561.31
2022-08-11T22:48:08.084Z,101554.38
2022-08-11T22:50:57.680Z,101559.13
2022-08-11T22:53:57.395Z,101562.97
2022-08-11T22:56:46.800Z,101558.75
2022-08-11T22:59:33.572Z,101560.75
2022-08-11T23:02:20.521Z,101563.66
2022-08-11T23:05:08.409Z,101563.03
2022-08-11T23:07:55.255Z,101565.94
2022-08-11T23:10:41.462Z,101566.09
2022-08-11T23:13:27.628Z,101559.06
2022-08-11T23:16:14.244Z,101557.47
2022-08-11T23:19:00.013Z,101560.38
2022-08-11T23:21:47.011Z,101562.38
2022-08-11T23:24:32.827Z,101560.75
2022-08-11T23:27:21.145Z,101558.28
2022-08-11T23:30:09.387Z,101566.59
2022-08-11T23:32:57.551Z,101567.72
2022-08-11T23:35:53.800Z,101570.69
2022-08-11T23:38:44.010Z,101568.22
2022-08-11T23:41:33.831Z,101559.41
2022-08-11T23:44:24.084Z,101564.13
2022-08-11T23:47:14.917Z,101560.78
2022-08-11T23:50:01.213Z,101558.31
2022-08-11T23:52:47.889Z,101558.66
2022-08-11T23:55:33.681Z,101567.91
2022-08-11T23:58:19.496Z,101560.84
